sensor_id;sensor_type;location;lat;lon;timestamp;pressure;altitude;pressure_sealevel;temperature;humidity
33795;BME280;51430;52.242;21.118;2023-05-21T00:00:54;101162.23;;;15.81;72.66
33795;BME280;51430;52.242;21.118;2023-05-21T00:03:37;101157.54;;;15.77;72.80
33795;BME280;51430;52.242;21.118;2023-05-21T00:06:08;101158.78;;;15.73;73.08
33795;BME280;51430;52.242;21.118;2023-05-21T00:08:37;101154.25;;;15.72;73.13
33795;BME280;51430;52.242;21.118;2023-05-21T00:11:05;101150.73;;;15.68;73.10
33795;BME280;51430;52.242;21.118;2023-05-21T00:13:33;101152.55;;;15.63;73.08
33795;BME280;51430;52.242;21.118;2023-05-21T00:16:00;101156.85;;;15.56;73.12
33795;BME280;51430;52.242;21.118;2023-05-21T00:18:28;101156.52;;;15.47;73.28
33795;BME280;51430;52.242;21.118;2023-05-21T00:24:14;101150.39;;;15.28;73.60
33795;BME280;51430;52.242;21.118;2023-05-21T00:26:43;101147.96;;;15.14;73.61
33795;BME280;51430;52.242;21.118;2023-05-21T00:29:11;101148.52;;;15.16;73.45
33795;BME280;51430;52.242;21.118;2023-05-21T00:31:39;101153.84;;;15.13;73.27
33795;BME280;51430;52.242;21.118;2023-05-21T00:34:07;101151.81;;;15.10;74.04
33795;BME280;51430;52.242;21.118;2023-05-21T00:36:35;101150.52;;;15.11;73.95
33795;BME280;51430;52.242;21.118;2023-05-21T00:39:03;101149.26;;;15.10;73.93
33795;BME280;51430;52.242;21.118;2023-05-21T00:41:31;101148.71;;;15.03;73.73
33795;BME280;51430;52.242;21.118;2023-05-21T00:44:02;101156.27;;;15.03;73.67
33795;BME280;51430;52.242;21.118;2023-05-21T00:46:29;101157.58;;;15.00;73.69
33795;BME280;51430;52.242;21.118;2023-05-21T00:48:59;101152.40;;;14.97;73.97
33795;BME280;51430;52.242;21.118;2023-05-21T00:51:27;101157.85;;;14.88;74.04
33795;BME280;51430;52.242;21.118;2023-05-21T00:53:57;101157.73;;;14.81;74.09
33795;BME280;51430;52.242;21.118;2023-05-21T00:56:26;101160.61;;;14.76;74.41
33795;BME280;51430;52.242;21.118;2023-05-21T00:58:55;101161.21;;;14.69;75.13
33795;BME280;51430;52.242;21.118;2023-05-21T01:01:24;101158.45;;;14.64;75.23
33795;BME280;51430;52.242;21.118;2023-05-21T01:04:01;101163.10;;;14.58;75.36
33795;BME280;51430;52.242;21.118;2023-05-21T01:06:29;101164.34;;;14.56;75.32
33795;BME280;51430;52.242;21.118;2023-05-21T01:09:02;101165.27;;;14.51;75.65
33795;BME280;51430;52.242;21.118;2023-05-21T01:11:58;101163.03;;;14.48;76.11
33795;BME280;51430;52.242;21.118;2023-05-21T01:14:28;101159.63;;;14.38;76.52
33795;BME280;51430;52.242;21.118;2023-05-21T01:16:59;101159.95;;;14.36;77.25
33795;BME280;51430;52.242;21.118;2023-05-21T01:19:28;101158.15;;;14.35;77.45
33795;BME280;51430;52.242;21.118;2023-05-21T01:22:03;101159.70;;;14.29;77.76
33795;BME280;51430;52.242;21.118;2023-05-21T01:24:32;101160.77;;;14.24;77.82
33795;BME280;51430;52.242;21.118;2023-05-21T01:27:01;101155.98;;;14.15;78.18
33795;BME280;51430;52.242;21.118;2023-05-21T01:29:30;101152.73;;;14.12;78.45
33795;BME280;51430;52.242;21.118;2023-05-21T01:32:05;101152.23;;;14.09;78.63
33795;BME280;51430;52.242;21.118;2023-05-21T01:34:50;101149.34;;;14.04;79.01
33795;BME280;51430;52.242;21.118;2023-05-21T01:37:26;101148.15;;;13.95;79.28
33795;BME280;51430;52.242;21.118;2023-05-21T01:40:02;101149.11;;;13.93;79.67
33795;BME280;51430;52.242;21.118;2023-05-21T01:42:33;101153.75;;;13.88;79.59
33795;BME280;51430;52.242;21.118;2023-05-21T01:45:04;101151.56;;;13.80;80.02
33795;BME280;51430;52.242;21.118;2023-05-21T01:47:35;101150.09;;;13.72;80.24
33795;BME280;51430;52.242;21.118;2023-05-21T01:50:05;101150.65;;;13.67;80.53
33795;BME280;51430;52.242;21.118;2023-05-21T01:52:33;101148.81;;;13.63;80.80
33795;BME280;51430;52.242;21.118;2023-05-21T01:55:04;101148.06;;;13.54;80.71
33795;BME280;51430;52.242;21.118;2023-05-21T01:57:32;101149.19;;;13.47;81.13
33795;BME280;51430;52.242;21.118;2023-05-21T02:00:00;101149.77;;;13.46;81.54
33795;BME280;51430;52.242;21.118;2023-05-21T02:02:29;101148.45;;;13.45;81.64
33795;BME280;51430;52.242;21.118;2023-05-21T02:04:59;101146.36;;;13.38;81.68
33795;BME280;51430;52.242;21.118;2023-05-21T02:07:27;101145.65;;;13.28;81.91
33795;BME280;51430;52.242;21.118;2023-05-21T02:09:55;101145.21;;;13.23;82.40
33795;BME280;51430;52.242;21.118;2023-05-21T02:12:24;101149.11;;;13.22;82.76
33795;BME280;51430;52.242;21.118;2023-05-21T02:14:52;101148.13;;;13.21;83.10
33795;BME280;51430;52.242;21.118;2023-05-21T02:17:21;101143.38;;;13.19;83.03
33795;BME280;51430;52.242;21.118;2023-05-21T02:19:51;101146.23;;;13.11;83.05
33795;BME280;51430;52.242;21.118;2023-05-21T02:22:19;101143.80;;;13.06;83.38
33795;BME280;51430;52.242;21.118;2023-05-21T02:24:47;101141.83;;;13.02;83.57
33795;BME280;51430;52.242;21.118;2023-05-21T02:27:15;101138.42;;;12.96;83.75
33795;BME280;51430;52.242;21.118;2023-05-21T02:29:44;101139.50;;;12.91;84.43
33795;BME280;51430;52.242;21.118;2023-05-21T02:32:12;101134.94;;;12.89;84.64
33795;BME280;51430;52.242;21.118;2023-05-21T02:34:40;101133.52;;;12.84;84.87
33795;BME280;51430;52.242;21.118;2023-05-21T02:37:10;101133.76;;;12.79;85.28
33795;BME280;51430;52.242;21.118;2023-05-21T02:39:38;101135.05;;;12.80;85.47
33795;BME280;51430;52.242;21.118;2023-05-21T02:42:06;101131.45;;;12.79;85.45
33795;BME280;51430;52.242;21.118;2023-05-21T02:44:34;101134.17;;;12.80;85.51
33795;BME280;51430;52.242;21.118;2023-05-21T02:47:02;101137.95;;;12.81;85.65
33795;BME280;51430;52.242;21.118;2023-05-21T02:49:30;101135.98;;;12.77;85.28
33795;BME280;51430;52.242;21.118;2023-05-21T02:51:57;101134.79;;;12.74;85.25
33795;BME280;51430;52.242;21.118;2023-05-21T02:54:25;101132.77;;;12.76;85.52
33795;BME280;51430;52.242;21.118;2023-05-21T02:56:53;101137.17;;;12.75;85.49
33795;BME280;51430;52.242;21.118;2023-05-21T02:59:21;101134.52;;;12.73;85.99
33795;BME280;51430;52.242;21.118;2023-05-21T03:01:49;101140.11;;;12.75;86.23
33795;BME280;51430;52.242;21.118;2023-05-21T03:04:17;101137.28;;;12.76;86.06
33795;BME280;51430;52.242;21.118;2023-05-21T03:06:48;101138.17;;;12.76;86.08
33795;BME280;51430;52.242;21.118;2023-05-21T03:09:21;101138.31;;;12.74;85.91
33795;BME280;51430;52.242;21.118;2023-05-21T03:11:49;101137.16;;;12.73;85.83
33795;BME280;51430;52.242;21.118;2023-05-21T03:14:18;101135.14;;;12.69;85.89
33795;BME280;51430;52.242;21.118;2023-05-21T03:22:21;101132.03;;;12.61;87.72
33795;BME280;51430;52.242;21.118;2023-05-21T03:24:49;101128.16;;;12.62;87.88
33795;BME280;51430;52.242;21.118;2023-05-21T03:27:17;101127.34;;;12.73;87.33
33795;BME280;51430;52.242;21.118;2023-05-21T03:29:44;101128.67;;;12.79;86.55
33795;BME280;51430;52.242;21.118;2023-05-21T03:32:12;101127.89;;;12.85;86.18
33795;BME280;51430;52.242;21.118;2023-05-21T03:34:41;101126.52;;;12.89;85.76
33795;BME280;51430;52.242;21.118;2023-05-21T03:37:08;101132.41;;;12.94;85.59
33795;BME280;51430;52.242;21.118;2023-05-21T03:39:36;101128.26;;;12.96;85.50
33795;BME280;51430;52.242;21.118;2023-05-21T03:42:04;101126.35;;;13.03;85.43
33795;BME280;51430;52.242;21.118;2023-05-21T03:50:54;101116.30;;;13.14;85.38
33795;BME280;51430;52.242;21.118;2023-05-21T03:53:23;101115.52;;;13.13;84.78
33795;BME280;51430;52.242;21.118;2023-05-21T03:55:51;101118.44;;;13.23;83.58
33795;BME280;51430;52.242;21.118;2023-05-21T03:58:22;101121.36;;;13.30;82.09
33795;BME280;51430;52.242;21.118;2023-05-21T04:00:50;101119.20;;;13.40;81.57
33795;BME280;51430;52.242;21.118;2023-05-21T04:03:18;101121.80;;;13.49;80.19
33795;BME280;51430;52.242;21.118;2023-05-21T04:05:46;101123.14;;;13.57;79.27
33795;BME280;51430;52.242;21.118;2023-05-21T04:08:14;101121.20;;;13.64;79.12
33795;BME280;51430;52.242;21.118;2023-05-21T04:10:42;101122.39;;;13.76;78.99
33795;BME280;51430;52.242;21.118;2023-05-21T04:13:10;101121.79;;;13.84;78.27
33795;BME280;51430;52.242;21.118;2023-05-21T04:15:38;101122.61;;;13.92;77.60
33795;BME280;51430;52.242;21.118;2023-05-21T04:18:09;101119.92;;;14.01;76.82
33795;BME280;51430;52.242;21.118;2023-05-21T04:20:39;101123.20;;;14.13;76.35
33795;BME280;51430;52.242;21.118;2023-05-21T04:23:17;101117.89;;;14.27;76.01
33795;BME280;51430;52.242;21.118;2023-05-21T04:25:56;101116.10;;;14.38;75.21
33795;BME280;51430;52.242;21.118;2023-05-21T04:29:03;101120.55;;;14.44;74.58
33795;BME280;51430;52.242;21.118;2023-05-21T04:31:31;101118.18;;;14.58;73.20
33795;BME280;51430;52.242;21.118;2023-05-21T04:34:00;101117.11;;;14.73;72.42
33795;BME280;51430;52.242;21.118;2023-05-21T04:36:28;101115.16;;;14.91;71.87
33795;BME280;51430;52.242;21.118;2023-05-21T04:38:56;101111.33;;;15.05;71.68
33795;BME280;51430;52.242;21.118;2023-05-21T04:41:24;101110.71;;;15.17;71.00
33795;BME280;51430;52.242;21.118;2023-05-21T04:43:52;101111.05;;;15.31;70.14
33795;BME280;51430;52.242;21.118;2023-05-21T04:46:22;101111.91;;;15.46;69.98
33795;BME280;51430;52.242;21.118;2023-05-21T04:48:53;101114.41;;;15.59;69.37
33795;BME280;51430;52.242;21.118;2023-05-21T04:51:24;101110.19;;;15.75;69.24
33795;BME280;51430;52.242;21.118;2023-05-21T04:53:53;101111.20;;;15.92;67.94
33795;BME280;51430;52.242;21.118;2023-05-21T04:56:21;101110.72;;;16.07;66.77
33795;BME280;51430;52.242;21.118;2023-05-21T04:58:53;101108.04;;;16.24;66.45
33795;BME280;51430;52.242;21.118;2023-05-21T05:17:56;101113.09;;;17.12;61.64
33795;BME280;51430;52.242;21.118;2023-05-21T05:20:24;101114.41;;;17.34;61.33
33795;BME280;51430;52.242;21.118;2023-05-21T05:22:52;101109.88;;;17.57;60.00
33795;BME280;51430;52.242;21.118;2023-05-21T05:25:19;101107.16;;;17.78;60.15
33795;BME280;51430;52.242;21.118;2023-05-21T05:27:47;101106.20;;;17.96;59.10
33795;BME280;51430;52.242;21.118;2023-05-21T05:30:15;101111.62;;;18.14;58.55
33795;BME280;51430;52.242;21.118;2023-05-21T05:32:43;101113.05;;;18.31;58.04
33795;BME280;51430;52.242;21.118;2023-05-21T05:35:11;101111.27;;;18.46;58.32
33795;BME280;51430;52.242;21.118;2023-05-21T05:37:39;101111.50;;;18.65;57.83
33795;BME280;51430;52.242;21.118;2023-05-21T05:40:06;101110.23;;;18.83;56.97
33795;BME280;51430;52.242;21.118;2023-05-21T05:42:34;101110.64;;;19.30;55.59
33795;BME280;51430;52.242;21.118;2023-05-21T05:45:02;101111.30;;;20.11;53.90
33795;BME280;51430;52.242;21.118;2023-05-21T05:47:31;101107.70;;;20.85;52.09
33795;BME280;51430;52.242;21.118;2023-05-21T05:49:59;101109.27;;;21.38;51.27
33795;BME280;51430;52.242;21.118;2023-05-21T05:52:29;101108.81;;;21.88;50.13
33795;BME280;51430;52.242;21.118;2023-05-21T05:54:57;101111.35;;;22.42;48.77
33795;BME280;51430;52.242;21.118;2023-05-21T05:57:24;101111.54;;;22.77;47.25
33795;BME280;51430;52.242;21.118;2023-05-21T05:59:53;101113.77;;;23.01;47.30
33795;BME280;51430;52.242;21.118;2023-05-21T06:02:47;101116.24;;;23.47;47.40
33795;BME280;51430;52.242;21.118;2023-05-21T06:05:15;101112.29;;;23.60;44.65
33795;BME280;51430;52.242;21.118;2023-05-21T06:08:44;101107.20;;;23.89;45.78
33795;BME280;51430;52.242;21.118;2023-05-21T06:11:14;101107.65;;;24.36;45.23
33795;BME280;51430;52.242;21.118;2023-05-21T06:13:44;101109.19;;;24.66;43.31
33795;BME280;51430;52.242;21.118;2023-05-21T06:16:11;101110.39;;;25.06;42.96
33795;BME280;51430;52.242;21.118;2023-05-21T06:18:41;101110.98;;;25.44;42.04
33795;BME280;51430;52.242;21.118;2023-05-21T06:21:07;101112.00;;;25.78;42.12
33795;BME280;51430;52.242;21.118;2023-05-21T06:23:34;101112.15;;;26.09;41.39
33795;BME280;51430;52.242;21.118;2023-05-21T06:26:03;101116.30;;;26.20;40.67
33795;BME280;51430;52.242;21.118;2023-05-21T06:28:29;101117.52;;;26.39;40.15
33795;BME280;51430;52.242;21.118;2023-05-21T06:31:00;101117.73;;;26.66;40.20
33795;BME280;51430;52.242;21.118;2023-05-21T06:33:38;101117.92;;;26.98;39.49
33795;BME280;51430;52.242;21.118;2023-05-21T06:36:32;101117.70;;;27.08;39.30
33795;BME280;51430;52.242;21.118;2023-05-21T06:38:59;101118.55;;;27.20;38.82
33795;BME280;51430;52.242;21.118;2023-05-21T06:41:27;101115.08;;;27.35;37.96
33795;BME280;51430;52.242;21.118;2023-05-21T06:43:55;101114.72;;;27.24;36.65
33795;BME280;51430;52.242;21.118;2023-05-21T06:46:23;101112.37;;;26.33;37.41
33795;BME280;51430;52.242;21.118;2023-05-21T06:48:53;101111.47;;;26.12;38.50
33795;BME280;51430;52.242;21.118;2023-05-21T06:51:21;101109.47;;;26.42;38.47
33795;BME280;51430;52.242;21.118;2023-05-21T06:53:49;101106.34;;;26.51;37.69
33795;BME280;51430;52.242;21.118;2023-05-21T06:56:20;101109.83;;;26.84;37.23
33795;BME280;51430;52.242;21.118;2023-05-21T06:58:48;101103.40;;;27.26;37.55
33795;BME280;51430;52.242;21.118;2023-05-21T07:01:30;101103.35;;;27.54;38.03
33795;BME280;51430;52.242;21.118;2023-05-21T07:04:00;101100.77;;;27.73;37.78
33795;BME280;51430;52.242;21.118;2023-05-21T07:06:30;101100.72;;;27.98;37.28
33795;BME280;51430;52.242;21.118;2023-05-21T07:09:04;101098.48;;;27.98;35.77
33795;BME280;51430;52.242;21.118;2023-05-21T07:11:35;101095.80;;;27.89;35.16
33795;BME280;51430;52.242;21.118;2023-05-21T07:14:07;101092.34;;;28.20;34.81
33795;BME280;51430;52.242;21.118;2023-05-21T07:16:36;101092.59;;;28.58;34.64
33795;BME280;51430;52.242;21.118;2023-05-21T07:19:06;101089.09;;;28.80;35.22
33795;BME280;51430;52.242;21.118;2023-05-21T07:21:36;101095.78;;;29.02;34.44
33795;BME280;51430;52.242;21.118;2023-05-21T07:24:08;101094.55;;;29.38;34.40
33795;BME280;51430;52.242;21.118;2023-05-21T07:26:37;101093.46;;;29.80;33.99
33795;BME280;51430;52.242;21.118;2023-05-21T07:29:16;101095.81;;;29.89;33.75
33795;BME280;51430;52.242;21.118;2023-05-21T07:31:45;101092.02;;;30.14;32.97
33795;BME280;51430;52.242;21.118;2023-05-21T07:34:13;101088.39;;;30.36;33.03
33795;BME280;51430;52.242;21.118;2023-05-21T07:36:41;101087.42;;;30.26;32.17
33795;BME280;51430;52.242;21.118;2023-05-21T07:39:09;101090.79;;;30.18;32.27
33795;BME280;51430;52.242;21.118;2023-05-21T07:41:38;101094.42;;;30.31;31.94
33795;BME280;51430;52.242;21.118;2023-05-21T07:44:05;101092.62;;;30.36;30.11
33795;BME280;51430;52.242;21.118;2023-05-21T07:46:35;101089.88;;;30.39;30.85
33795;BME280;51430;52.242;21.118;2023-05-21T07:49:03;101091.11;;;30.56;30.70
33795;BME280;51430;52.242;21.118;2023-05-21T07:51:31;101090.27;;;30.34;30.24
33795;BME280;51430;52.242;21.118;2023-05-21T07:54:01;101087.73;;;30.58;30.95
33795;BME280;51430;52.242;21.118;2023-05-21T07:56:31;101092.35;;;31.02;30.50
33795;BME280;51430;52.242;21.118;2023-05-21T07:59:00;101095.42;;;31.34;29.62
33795;BME280;51430;52.242;21.118;2023-05-21T08:01:30;101095.77;;;31.28;30.09
33795;BME280;51430;52.242;21.118;2023-05-21T08:04:14;101093.45;;;31.07;29.42
33795;BME280;51430;52.242;21.118;2023-05-21T08:06:53;101091.79;;;31.13;29.13
33795;BME280;51430;52.242;21.118;2023-05-21T08:09:24;101094.03;;;31.07;29.16
33795;BME280;51430;52.242;21.118;2023-05-21T08:11:55;101090.46;;;31.20;29.30
33795;BME280;51430;52.242;21.118;2023-05-21T08:14:23;101094.70;;;30.97;28.49
33795;BME280;51430;52.242;21.118;2023-05-21T08:16:52;101092.98;;;30.91;28.59
33795;BME280;51430;52.242;21.118;2023-05-21T08:19:20;101090.56;;;30.97;27.83
33795;BME280;51430;52.242;21.118;2023-05-21T08:21:48;101089.02;;;30.89;28.11
33795;BME280;51430;52.242;21.118;2023-05-21T08:24:19;101093.38;;;30.78;28.08
33795;BME280;51430;52.242;21.118;2023-05-21T08:26:48;101090.34;;;30.90;27.89
33795;BME280;51430;52.242;21.118;2023-05-21T08:29:17;101085.97;;;31.14;28.35
33795;BME280;51430;52.242;21.118;2023-05-21T08:31:44;101083.56;;;31.44;28.06
33795;BME280;51430;52.242;21.118;2023-05-21T08:34:12;101082.14;;;31.66;28.20
33795;BME280;51430;52.242;21.118;2023-05-21T08:36:40;101076.88;;;31.88;27.59
33795;BME280;51430;52.242;21.118;2023-05-21T08:39:09;101075.64;;;32.20;27.41
33795;BME280;51430;52.242;21.118;2023-05-21T08:41:39;101080.29;;;32.08;27.83
33795;BME280;51430;52.242;21.118;2023-05-21T08:44:28;101084.82;;;32.00;26.39
33795;BME280;51430;52.242;21.118;2023-05-21T08:47:06;101082.16;;;31.34;25.94
33795;BME280;51430;52.242;21.118;2023-05-21T08:49:37;101086.19;;;31.04;27.05
33795;BME280;51430;52.242;21.118;2023-05-21T08:52:06;101086.29;;;31.22;27.21
33795;BME280;51430;52.242;21.118;2023-05-21T08:54:34;101082.67;;;31.50;27.65
33795;BME280;51430;52.242;21.118;2023-05-21T08:57:14;101088.25;;;31.24;27.54
33795;BME280;51430;52.242;21.118;2023-05-21T08:59:52;101084.13;;;31.91;27.51
33795;BME280;51430;52.242;21.118;2023-05-21T09:02:35;101085.64;;;31.56;26.00
33795;BME280;51430;52.242;21.118;2023-05-21T09:05:18;101082.85;;;31.97;26.61
33795;BME280;51430;52.242;21.118;2023-05-21T09:08:05;101084.08;;;31.93;26.79
33795;BME280;51430;52.242;21.118;2023-05-21T09:10:38;101085.08;;;31.89;26.62
33795;BME280;51430;52.242;21.118;2023-05-21T09:13:09;101086.04;;;31.86;27.04
33795;BME280;51430;52.242;21.118;2023-05-21T09:15:37;101077.00;;;31.05;26.77
33795;BME280;51430;52.242;21.118;2023-05-21T09:18:05;101071.92;;;30.46;28.02
33795;BME280;51430;52.242;21.118;2023-05-21T09:20:33;101076.38;;;31.52;27.39
33795;BME280;51430;52.242;21.118;2023-05-21T09:23:03;101075.84;;;31.39;26.88
33795;BME280;51430;52.242;21.118;2023-05-21T09:25:31;101069.77;;;31.11;27.32
33795;BME280;51430;52.242;21.118;2023-05-21T09:27:59;101070.05;;;31.48;26.77
33795;BME280;51430;52.242;21.118;2023-05-21T09:30:27;101063.09;;;31.18;27.05
33795;BME280;51430;52.242;21.118;2023-05-21T09:32:58;101068.98;;;31.45;26.90
33795;BME280;51430;52.242;21.118;2023-05-21T09:35:27;101065.31;;;31.41;26.42
33795;BME280;51430;52.242;21.118;2023-05-21T09:37:54;101061.54;;;31.62;27.04
33795;BME280;51430;52.242;21.118;2023-05-21T09:40:24;101060.61;;;32.19;26.65
33795;BME280;51430;52.242;21.118;2023-05-21T09:42:53;101057.52;;;32.47;26.08
33795;BME280;51430;52.242;21.118;2023-05-21T09:45:25;101059.70;;;31.30;27.03
33795;BME280;51430;52.242;21.118;2023-05-21T09:47:56;101055.80;;;30.83;26.99
33795;BME280;51430;52.242;21.118;2023-05-21T09:50:25;101052.55;;;30.80;28.54
33795;BME280;51430;52.242;21.118;2023-05-21T09:52:54;101055.52;;;31.83;27.73
33795;BME280;51430;52.242;21.118;2023-05-21T09:55:24;101058.89;;;32.32;27.27
33795;BME280;51430;52.242;21.118;2023-05-21T09:57:53;101057.83;;;33.09;26.14
33795;BME280;51430;52.242;21.118;2023-05-21T10:00:23;101058.70;;;34.25;25.99
33795;BME280;51430;52.242;21.118;2023-05-21T10:03:05;101060.86;;;35.10;23.81
33795;BME280;51430;52.242;21.118;2023-05-21T10:05:36;101059.92;;;35.21;23.96
33795;BME280;51430;52.242;21.118;2023-05-21T10:08:07;101060.10;;;35.44;24.13
33795;BME280;51430;52.242;21.118;2023-05-21T10:10:37;101058.87;;;36.35;23.72
33795;BME280;51430;52.242;21.118;2023-05-21T10:13:08;101063.55;;;35.80;23.78
33795;BME280;51430;52.242;21.118;2023-05-21T10:15:41;101063.98;;;35.68;23.78
33795;BME280;51430;52.242;21.118;2023-05-21T10:18:12;101052.52;;;35.33;24.18
33795;BME280;51430;52.242;21.118;2023-05-21T10:20:40;101058.77;;;34.77;23.93
33795;BME280;51430;52.242;21.118;2023-05-21T10:23:08;101055.20;;;33.67;25.36
33795;BME280;51430;52.242;21.118;2023-05-21T10:25:36;101051.61;;;34.91;25.19
33795;BME280;51430;52.242;21.118;2023-05-21T10:28:05;101060.04;;;36.45;23.88
33795;BME280;51430;52.242;21.118;2023-05-21T10:30:35;101050.23;;;37.02;23.33
33795;BME280;51430;52.242;21.118;2023-05-21T10:33:04;101055.72;;;36.87;22.44
33795;BME280;51430;52.242;21.118;2023-05-21T10:35:33;101050.44;;;35.03;23.06
33795;BME280;51430;52.242;21.118;2023-05-21T10:38:03;101041.58;;;33.21;24.78
33795;BME280;51430;52.242;21.118;2023-05-21T10:40:31;101043.02;;;33.49;25.90
33795;BME280;51430;52.242;21.118;2023-05-21T11:00:52;101033.34;;;34.81;24.56
33795;BME280;51430;52.242;21.118;2023-05-21T11:03:23;101034.72;;;33.72;24.49
33795;BME280;51430;52.242;21.118;2023-05-21T11:05:56;101025.68;;;31.96;25.97
33795;BME280;51430;52.242;21.118;2023-05-21T11:08:26;101019.20;;;32.37;25.76
33795;BME280;51430;52.242;21.118;2023-05-21T11:10:56;101023.84;;;33.26;24.87
33795;BME280;51430;52.242;21.118;2023-05-21T11:13:45;101029.62;;;33.34;24.76
33795;BME280;51430;52.242;21.118;2023-05-21T11:16:17;101021.19;;;33.92;23.94
33795;BME280;51430;52.242;21.118;2023-05-21T11:21:32;101024.63;;;35.73;23.06
33795;BME280;51430;52.242;21.118;2023-05-21T11:24:05;101013.77;;;36.79;21.96
33795;BME280;51430;52.242;21.118;2023-05-21T11:29:16;101019.20;;;37.64;21.79
33795;BME280;51430;52.242;21.118;2023-05-21T11:31:46;101019.83;;;38.10;21.35
33795;BME280;51430;52.242;21.118;2023-05-21T11:34:22;101018.81;;;37.63;21.58
33795;BME280;51430;52.242;21.118;2023-05-21T11:39:48;101008.69;;;37.05;21.20
33795;BME280;51430;52.242;21.118;2023-05-21T11:42:37;101006.02;;;35.50;22.12
33795;BME280;51430;52.242;21.118;2023-05-21T11:45:05;101011.25;;;35.61;22.24
33795;BME280;51430;52.242;21.118;2023-05-21T11:47:33;101009.90;;;35.56;22.36
33795;BME280;51430;52.242;21.118;2023-05-21T11:50:03;101007.19;;;35.48;22.81
33795;BME280;51430;52.242;21.118;2023-05-21T11:52:31;100999.81;;;36.34;22.33
33795;BME280;51430;52.242;21.118;2023-05-21T11:54:59;101005.38;;;36.77;21.48
33795;BME280;51430;52.242;21.118;2023-05-21T11:57:29;101004.63;;;35.86;22.20
33795;BME280;51430;52.242;21.118;2023-05-21T12:00:02;101007.52;;;35.25;22.22
33795;BME280;51430;52.242;21.118;2023-05-21T12:02:50;101003.70;;;35.80;22.06
33795;BME280;51430;52.242;21.118;2023-05-21T12:05:19;101003.44;;;37.37;21.85
33795;BME280;51430;52.242;21.118;2023-05-21T12:07:50;101006.34;;;38.31;20.88
33795;BME280;51430;52.242;21.118;2023-05-21T12:10:22;101012.58;;;37.65;20.91
33795;BME280;51430;52.242;21.118;2023-05-21T12:13:13;101004.68;;;37.95;21.02
33795;BME280;51430;52.242;21.118;2023-05-21T12:15:45;101004.19;;;38.32;19.50
33795;BME280;51430;52.242;21.118;2023-05-21T12:19:09;101002.14;;;37.88;20.40
33795;BME280;51430;52.242;21.118;2023-05-21T12:21:38;100993.66;;;36.24;20.94
33795;BME280;51430;52.242;21.118;2023-05-21T12:24:11;100993.92;;;36.56;21.71
33795;BME280;51430;52.242;21.118;2023-05-21T12:26:39;101002.50;;;37.00;21.30
33795;BME280;51430;52.242;21.118;2023-05-21T12:29:08;101002.64;;;37.63;21.19
33795;BME280;51430;52.242;21.118;2023-05-21T12:31:48;101002.11;;;38.58;20.02
33795;BME280;51430;52.242;21.118;2023-05-21T12:34:36;100999.02;;;39.52;19.90
33795;BME280;51430;52.242;21.118;2023-05-21T12:37:09;100995.56;;;39.49;19.53
33795;BME280;51430;52.242;21.118;2023-05-21T12:39:52;100989.94;;;38.74;19.67
33795;BME280;51430;52.242;21.118;2023-05-21T12:42:27;100990.06;;;38.35;20.41
33795;BME280;51430;52.242;21.118;2023-05-21T12:45:05;100987.80;;;37.47;20.58
33795;BME280;51430;52.242;21.118;2023-05-21T12:47:38;100977.05;;;36.16;21.50
33795;BME280;51430;52.242;21.118;2023-05-21T12:50:08;100978.68;;;34.76;22.21
33795;BME280;51430;52.242;21.118;2023-05-21T12:52:46;100976.02;;;34.63;22.71
33795;BME280;51430;52.242;21.118;2023-05-21T12:55:23;100971.55;;;35.00;22.86
33795;BME280;51430;52.242;21.118;2023-05-21T12:58:04;100969.58;;;35.68;22.25
33795;BME280;51430;52.242;21.118;2023-05-21T13:00:40;100972.02;;;35.05;22.18
33795;BME280;51430;52.242;21.118;2023-05-21T13:03:17;100968.86;;;34.94;22.28
33795;BME280;51430;52.242;21.118;2023-05-21T13:05:59;100965.17;;;33.62;23.40
33795;BME280;51430;52.242;21.118;2023-05-21T13:08:34;100962.98;;;34.04;23.98
33795;BME280;51430;52.242;21.118;2023-05-21T13:11:03;100960.84;;;33.71;23.80
33795;BME280;51430;52.242;21.118;2023-05-21T13:13:33;100962.19;;;33.94;23.81
33795;BME280;51430;52.242;21.118;2023-05-21T13:16:06;100959.65;;;34.63;23.12
33795;BME280;51430;52.242;21.118;2023-05-21T13:18:48;100961.63;;;35.24;23.60
33795;BME280;51430;52.242;21.118;2023-05-21T13:21:17;100959.56;;;34.83;22.82
33795;BME280;51430;52.242;21.118;2023-05-21T13:23:45;100952.85;;;33.86;23.65
33795;BME280;51430;52.242;21.118;2023-05-21T13:26:13;100954.92;;;34.13;23.89
33795;BME280;51430;52.242;21.118;2023-05-21T13:28:41;100954.08;;;33.88;23.73
33795;BME280;51430;52.242;21.118;2023-05-21T13:31:10;100947.62;;;34.34;23.97
33795;BME280;51430;52.242;21.118;2023-05-21T13:33:41;100949.78;;;34.39;23.80
33795;BME280;51430;52.242;21.118;2023-05-21T13:36:09;100953.73;;;34.42;22.76
33795;BME280;51430;52.242;21.118;2023-05-21T13:38:37;100950.80;;;34.71;22.01
33795;BME280;51430;52.242;21.118;2023-05-21T13:41:05;100949.02;;;35.29;22.03
33795;BME280;51430;52.242;21.118;2023-05-21T13:43:33;100948.30;;;36.13;22.10
33795;BME280;51430;52.242;21.118;2023-05-21T13:46:02;100950.06;;;36.36;21.93
33795;BME280;51430;52.242;21.118;2023-05-21T13:48:30;100947.98;;;36.78;21.43
33795;BME280;51430;52.242;21.118;2023-05-21T13:51:00;100949.27;;;35.95;21.37
33795;BME280;51430;52.242;21.118;2023-05-21T13:53:28;100946.16;;;34.99;21.26
33795;BME280;51430;52.242;21.118;2023-05-21T13:55:56;100938.64;;;34.19;21.59
33795;BME280;51430;52.242;21.118;2023-05-21T13:58:24;100932.70;;;34.08;22.21